createdAt,value
2022-11-25T00:01:29.128Z,7.33
2022-11-25T00:03:57.381Z,7.87
2022-11-25T00:06:25.858Z,7.60
2022-11-25T00:09:00.180Z,6.80
2022-11-25T00:11:26.902Z,8.17
2022-11-25T00:13:53.726Z,10.37
2022-11-25T00:16:21.692Z,5.97
2022-11-25T00:18:50.415Z,7.03
2022-11-25T00:21:28.439Z,8.80
2022-11-25T00:24:00.125Z,6.60
2022-11-25T00:26:28.411Z,8.57
2022-11-25T00:28:57.531Z,9.33
2022-11-25T00:31:26.806Z,6.60
2022-11-25T00:33:53.493Z,5.90
2022-11-25T00:36:38.525Z,6.50
2022-11-25T00:39:07.696Z,5.60
2022-11-25T00:41:52.740Z,4.43
2022-11-25T00:44:39.164Z,9.03
2022-11-25T00:47:17.932Z,8.17
2022-11-25T00:49:47.106Z,6.90
2022-11-25T00:52:19.188Z,4.90
2022-11-25T00:54:47.853Z,5.70
2022-11-25T00:57:15.324Z,3.70
2022-11-25T00:59:41.789Z,7.00
2022-11-25T01:02:10.594Z,9.07
2022-11-25T01:04:37.544Z,5.13
2022-11-25T01:07:04.421Z,5.53
2022-11-25T01:09:31.644Z,8.97
2022-11-25T01:11:58.272Z,6.87
2022-11-25T01:14:25.234Z,9.07
2022-11-25T01:16:52.122Z,4.73
2022-11-25T01:19:19.309Z,6.60
2022-11-25T01:21:45.958Z,7.00
2022-11-25T01:24:14.586Z,5.50
2022-11-25T01:26:41.597Z,4.27
2022-11-25T01:29:14.977Z,8.70
2022-11-25T01:31:41.975Z,6.63
2022-11-25T01:34:19.921Z,4.40
2022-11-25T01:36:46.594Z,2.83
2022-11-25T01:39:24.453Z,4.07
2022-11-25T01:41:55.108Z,6.23
2022-11-25T01:44:23.651Z,5.40
2022-11-25T01:46:53.068Z,4.97
2022-11-25T01:49:26.106Z,5.63
2022-11-25T01:51:55.592Z,5.50
2022-11-25T01:54:24.220Z,9.33
2022-11-25T01:56:55.108Z,5.87
2022-11-25T01:59:21.678Z,4.17
2022-11-25T02:01:48.362Z,4.77
2022-11-25T02:04:15.531Z,3.87
2022-11-25T02:06:48.088Z,6.13
2022-11-25T02:09:15.200Z,5.67
2022-11-25T02:11:43.378Z,4.40
2022-11-25T02:14:12.383Z,7.23
2022-11-25T02:16:39.219Z,4.47
2022-11-25T02:19:15.080Z,6.50
2022-11-25T02:21:45.421Z,4.07
2022-11-25T02:24:19.755Z,4.27
2022-11-25T02:26:46.655Z,6.63
2022-11-25T02:29:13.451Z,8.57
2022-11-25T02:31:40.210Z,7.77
2022-11-25T02:34:06.978Z,6.53
2022-11-25T02:36:34.033Z,6.80
2022-11-25T02:39:01.756Z,9.83
2022-11-25T02:41:32.829Z,8.73
2022-11-25T02:44:00.296Z,7.03
2022-11-25T02:46:28.397Z,7.53
2022-11-25T02:49:12.452Z,9.57
2022-11-25T02:51:41.738Z,4.20
2022-11-25T02:54:08.232Z,8.93
2022-11-25T02:56:35.779Z,7.20
2022-11-25T02:59:03.398Z,4.13
2022-11-25T03:01:31.489Z,5.23
2022-11-25T03:03:58.820Z,8.13
2022-11-25T03:06:25.386Z,5.63
2022-11-25T03:08:52.128Z,6.20
2022-11-25T03:11:18.818Z,6.67
2022-11-25T03:13:45.377Z,6.53
2022-11-25T03:16:12.195Z,6.17
2022-11-25T03:18:38.696Z,5.50
2022-11-25T03:21:07.333Z,6.20
2022-11-25T03:23:33.789Z,7.70
2022-11-25T03:26:00.185Z,7.17
2022-11-25T03:28:26.742Z,5.53
2022-11-25T03:30:53.166Z,6.23
2022-11-25T03:33:19.719Z,7.93
2022-11-25T03:35:48.085Z,9.23
2022-11-25T03:38:14.494Z,6.77
2022-11-25T03:40:41.000Z,6.93
2022-11-25T03:43:07.586Z,4.97
2022-11-25T03:45:34.091Z,5.53
2022-11-25T03:48:01.994Z,6.80
2022-11-25T03:50:28.412Z,4.60
2022-11-25T03:52:54.884Z,4.17
2022-11-25T03:55:21.458Z,8.70
2022-11-25T03:57:48.056Z,4.90
2022-11-25T04:00:15.840Z,12.60
2022-11-25T04:02:42.393Z,8.80
2022-11-25T04:05:08.964Z,5.90
2022-11-25T04:07:35.434Z,6.60
2022-11-25T04:10:01.892Z,6.83
2022-11-25T04:12:46.581Z,5.43
2022-11-25T04:15:16.818Z,4.40
2022-11-25T04:17:43.632Z,3.77
2022-11-25T04:20:10.993Z,4.67
2022-11-25T04:22:37.803Z,5.43
2022-11-25T04:25:04.861Z,6.03
2022-11-25T04:27:32.440Z,6.43
2022-11-25T04:29:59.056Z,7.37
2022-11-25T04:32:25.491Z,6.13
2022-11-25T04:34:51.948Z,5.53
2022-11-25T04:37:18.366Z,7.90
2022-11-25T04:39:44.787Z,6.53
2022-11-25T04:42:30.092Z,4.37
2022-11-25T04:45:21.380Z,9.17
2022-11-25T04:47:43.752Z,4.53
2022-11-25T04:50:15.340Z,4.60
2022-11-25T04:52:41.935Z,5.70
2022-11-25T04:55:08.923Z,8.27
2022-11-25T04:57:35.384Z,4.97
2022-11-25T05:00:02.142Z,3.70
2022-11-25T05:02:28.739Z,6.43
2022-11-25T05:04:56.976Z,4.70
2022-11-25T05:07:26.817Z,9.10
2022-11-25T05:09:55.496Z,5.93
2022-11-25T05:12:25.563Z,5.53
2022-11-25T05:14:52.046Z,8.80
2022-11-25T05:17:24.226Z,7.73
2022-11-25T05:19:51.511Z,5.87
2022-11-25T05:22:20.943Z,2.93
2022-11-25T05:24:47.887Z,3.17
2022-11-25T05:27:14.916Z,3.77
2022-11-25T05:29:41.698Z,5.53
2022-11-25T05:32:08.372Z,3.97
2022-11-25T05:34:35.332Z,10.63
2022-11-25T05:37:01.878Z,5.07
2022-11-25T05:39:28.403Z,5.03
2022-11-25T05:41:54.815Z,3.63
2022-11-25T05:44:23.247Z,7.27
2022-11-25T05:46:50.175Z,3.90
2022-11-25T05:49:17.232Z,2.87
2022-11-25T05:51:43.794Z,8.83
2022-11-25T05:54:10.444Z,7.23
2022-11-25T05:56:37.012Z,3.37
2022-11-25T05:59:04.044Z,5.83
2022-11-25T06:01:31.262Z,5.07
2022-11-25T06:04:01.614Z,3.20
2022-11-25T06:06:28.268Z,6.60
2022-11-25T06:08:55.264Z,4.90
2022-11-25T06:11:22.176Z,5.77
2022-11-25T06:13:48.727Z,4.60
2022-11-25T06:16:18.628Z,12.23
2022-11-25T06:18:47.282Z,4.30
2022-11-25T06:21:14.206Z,6.20
2022-11-25T06:23:41.852Z,4.97
2022-11-25T06:26:11.590Z,4.47
2022-11-25T06:28:39.766Z,7.00
2022-11-25T06:31:10.642Z,5.67
2022-11-25T06:33:37.901Z,4.77
2022-11-25T06:36:06.391Z,7.83
2022-11-25T06:40:03.625Z,6.63
2022-11-25T06:42:30.568Z,5.50
2022-11-25T06:44:57.149Z,7.93
2022-11-25T06:47:23.813Z,9.50
2022-11-25T06:49:50.252Z,5.83
2022-11-25T06:52:16.695Z,4.83
2022-11-25T06:54:43.217Z,5.20
2022-11-25T06:57:11.291Z,7.83
2022-11-25T06:59:37.971Z,7.13
2022-11-25T07:02:04.886Z,8.20
2022-11-25T07:04:31.430Z,8.70
2022-11-25T07:06:58.006Z,6.73
2022-11-25T07:09:24.946Z,6.13
2022-11-25T07:11:51.463Z,6.17
2022-11-25T07:14:18.020Z,8.30
2022-11-25T07:16:45.567Z,4.83
2022-11-25T07:19:14.365Z,6.53
2022-11-25T07:21:41.732Z,9.10
2022-11-25T07:24:08.349Z,12.17
2022-11-25T07:26:38.065Z,8.37
2022-11-25T07:29:23.332Z,7.37
2022-11-25T07:31:53.850Z,12.30
2022-11-25T07:34:21.215Z,4.27
2022-11-25T07:36:49.365Z,6.13
2022-11-25T07:39:18.491Z,8.80
2022-11-25T07:41:45.641Z,7.20
2022-11-25T07:44:14.414Z,11.13
2022-11-25T07:46:43.527Z,13.20
2022-11-25T07:49:12.826Z,17.40
2022-11-25T07:51:41.584Z,11.80
2022-11-25T07:54:10.102Z,11.50
2022-11-25T07:56:38.249Z,12.27
2022-11-25T07:59:06.131Z,15.23
2022-11-25T08:01:32.824Z,11.27
2022-11-25T08:03:59.470Z,12.20
2022-11-25T08:06:28.251Z,10.60
2022-11-25T08:08:56.297Z,15.47
2022-11-25T08:11:27.318Z,7.77
2022-11-25T08:13:54.198Z,9.90
2022-11-25T08:16:23.053Z,10.57
2022-11-25T08:18:49.762Z,10.57
2022-11-25T08:21:17.567Z,10.40
2022-11-25T08:23:47.471Z,9.03
2022-11-25T08:26:17.302Z,10.00
2022-11-25T08:28:44.158Z,8.23
2022-11-25T08:31:13.523Z,9.87
2022-11-25T08:33:40.773Z,8.33
2022-11-25T08:36:08.011Z,9.37
2022-11-25T08:38:34.669Z,9.33
2022-11-25T08:41:01.562Z,8.20
2022-11-25T08:43:29.663Z,10.50
2022-11-25T08:45:56.283Z,10.20
2022-11-25T08:48:22.750Z,6.90
2022-11-25T08:50:54.106Z,10.70
2022-11-25T08:53:21.366Z,10.73
2022-11-25T08:55:48.145Z,7.40
2022-11-25T08:58:14.643Z,12.73
2022-11-25T09:00:42.313Z,7.47
2022-11-25T09:03:09.394Z,9.03
2022-11-25T09:05:39.855Z,5.60
2022-11-25T09:08:07.354Z,5.73
2022-11-25T09:10:34.354Z,8.07
2022-11-25T09:13:00.975Z,9.33
2022-11-25T09:15:27.416Z,7.93
2022-11-25T09:18:05.232Z,9.20
2022-11-25T09:20:32.945Z,8.30
2022-11-25T09:23:00.776Z,7.80
2022-11-25T09:25:27.615Z,8.10
2022-11-25T09:27:55.314Z,6.90
2022-11-25T09:30:22.656Z,6.10
2022-11-25T09:32:50.391Z,8.40
2022-11-25T09:35:17.531Z,6.57
2022-11-25T09:37:44.048Z,9.93
2022-11-25T09:40:30.338Z,8.80
2022-11-25T09:43:26.824Z,9.20
2022-11-25T09:46:47.636Z,7.47
2022-11-25T09:49:32.566Z,8.67
2022-11-25T09:52:20.882Z,7.43
2022-11-25T09:54:59.468Z,5.30
2022-11-25T09:57:49.304Z,6.00
2022-11-25T10:00:18.963Z,8.40
2022-11-25T10:03:13.573Z,6.93
2022-11-25T10:05:47.918Z,8.40
2022-11-25T10:08:19.117Z,6.23
2022-11-25T10:10:48.366Z,11.20
2022-11-25T10:13:19.966Z,5.63
2022-11-25T10:15:50.002Z,7.10
2022-11-25T10:18:30.492Z,6.57
2022-11-25T10:20:57.047Z,5.73
2022-11-25T10:23:28.683Z,7.60
2022-11-25T10:26:02.019Z,6.17
2022-11-25T10:28:33.054Z,6.83
2022-11-25T10:31:20.007Z,7.73
2022-11-25T10:33:58.634Z,9.70
2022-11-25T10:36:37.646Z,5.00
2022-11-25T10:39:27.098Z,6.70
2022-11-25T10:42:04.836Z,9.13
2022-11-25T10:44:37.194Z,6.73
2022-11-25T10:47:19.324Z,5.97
2022-11-25T10:50:07.545Z,6.97
2022-11-25T10:52:57.295Z,8.57
2022-11-25T10:55:32.018Z,7.53
2022-11-25T10:57:59.227Z,6.00
2022-11-25T11:00:28.834Z,9.83
2022-11-25T11:02:56.082Z,6.13
2022-11-25T11:05:25.584Z,6.63
2022-11-25T11:08:12.280Z,8.00
2022-11-25T11:10:39.601Z,6.33
2022-11-25T11:13:21.012Z,7.27
2022-11-25T11:15:48.126Z,6.50
2022-11-25T11:18:23.592Z,9.30
2022-11-25T11:20:55.439Z,6.47
2022-11-25T11:23:22.274Z,7.37
2022-11-25T11:26:06.273Z,9.03
2022-11-25T11:28:36.877Z,7.60
2022-11-25T11:31:15.464Z,6.17
2022-11-25T11:33:48.359Z,7.40
2022-11-25T11:36:40.537Z,9.07
2022-11-25T11:39:35.838Z,7.67
2022-11-25T11:42:25.123Z,3.97
2022-11-25T11:45:04.302Z,7.17
2022-11-25T11:47:55.890Z,3.80
2022-11-25T11:50:32.273Z,8.03
2022-11-25T11:53:09.540Z,6.07
2022-11-25T11:59:35.776Z,6.33
2022-11-25T12:02:07.035Z,7.33
2022-11-25T12:04:40.457Z,5.23
2022-11-25T12:07:24.327Z,9.37
2022-11-25T12:09:58.004Z,4.57
2022-11-25T12:12:33.753Z,6.73
2022-11-25T12:15:15.325Z,7.83
2022-11-25T12:17:48.876Z,7.60
2022-11-25T12:20:40.379Z,3.90
2022-11-25T12:23:15.973Z,5.00
2022-11-25T12:25:43.187Z,5.17
2022-11-25T12:28:20.685Z,6.53
2022-11-25T12:31:04.553Z,5.13
2022-11-25T12:33:56.801Z,5.67
2022-11-25T12:36:46.772Z,4.20
2022-11-25T12:39:26.401Z,12.07
2022-11-25T12:41:59.865Z,6.57
2022-11-25T12:44:35.821Z,7.73
2022-11-25T12:47:02.510Z,6.43
2022-11-25T12:49:31.297Z,10.20
2022-11-25T12:52:06.883Z,6.70
2022-11-25T12:54:50.456Z,6.57
2022-11-25T12:57:49.294Z,8.07
2022-11-25T13:00:42.313Z,4.40
2022-11-25T13:03:37.006Z,7.27
2022-11-25T13:06:20.135Z,9.03
2022-11-25T13:08:57.250Z,6.97
2022-11-25T13:11:41.659Z,6.47
2022-11-25T13:14:20.522Z,5.27
2022-11-25T13:16:48.828Z,7.70
2022-11-25T13:19:19.979Z,6.90
2022-11-25T13:21:56.704Z,7.17
2022-11-25T13:24:42.115Z,5.73
2022-11-25T13:27:32.832Z,7.63
2022-11-25T13:30:01.040Z,5.57
2022-11-25T13:32:36.085Z,5.40
2022-11-25T13:35:21.534Z,6.43
2022-11-25T13:37:49.105Z,6.60
2022-11-25T13:40:29.900Z,6.60
2022-11-25T13:42:57.636Z,6.47
2022-11-25T13:45:30.379Z,8.63
2022-11-25T13:48:16.354Z,7.57
2022-11-25T13:51:09.657Z,5.43
2022-11-25T13:53:33.603Z,7.93
2022-11-25T13:56:33.263Z,8.00
2022-11-25T13:59:12.039Z,7.47
2022-11-25T14:01:52.005Z,9.70
2022-11-25T14:04:25.234Z,9.20
2022-11-25T14:07:03.923Z,7.83
2022-11-25T14:09:42.481Z,6.87
2022-11-25T14:12:08.982Z,5.13
2022-11-25T14:14:53.888Z,6.17
2022-11-25T14:17:48.336Z,5.77
2022-11-25T14:20:43.384Z,6.67
2022-11-25T14:23:35.719Z,6.83
2022-11-25T14:26:20.922Z,7.00
2022-11-25T14:28:59.189Z,7.67
2022-11-25T14:31:33.255Z,6.97
2022-11-25T14:34:03.760Z,5.73
2022-11-25T14:36:44.060Z,7.47
2022-11-25T14:39:22.890Z,8.57
2022-11-25T14:41:57.411Z,7.70
2022-11-25T14:44:28.899Z,8.03
2022-11-25T14:46:57.680Z,7.97
2022-11-25T14:49:46.622Z,6.10
2022-11-25T14:52:17.289Z,9.77
2022-11-25T14:54:44.702Z,9.17
2022-11-25T14:57:11.288Z,8.80
2022-11-25T14:59:42.257Z,11.13
2022-11-25T15:02:27.618Z,7.10
2022-11-25T15:05:01.895Z,7.40
2022-11-25T15:07:31.368Z,6.37
2022-11-25T15:09:58.043Z,8.10
2022-11-25T15:12:30.282Z,10.00
2022-11-25T15:14:57.146Z,7.03
2022-11-25T15:17:28.426Z,11.57
2022-11-25T15:19:57.819Z,5.67
2022-11-25T15:22:24.850Z,7.07
2022-11-25T15:24:56.520Z,13.67
2022-11-25T15:27:28.196Z,11.67
2022-11-25T15:29:56.234Z,9.80
2022-11-25T15:32:26.088Z,14.70
2022-11-25T15:34:54.632Z,9.27
2022-11-25T15:37:21.554Z,10.57
2022-11-25T15:39:48.210Z,9.47
2022-11-25T15:42:22.386Z,10.20
2022-11-25T15:44:53.469Z,12.53
2022-11-25T15:47:25.169Z,9.07
2022-11-25T15:50:20.680Z,12.83
2022-11-25T15:52:50.982Z,12.67
2022-11-25T15:55:31.649Z,11.53
2022-11-25T15:58:17.496Z,14.53
2022-11-25T16:01:18.018Z,8.07
2022-11-25T16:03:45.839Z,9.53
2022-11-25T16:06:24.091Z,10.20
2022-11-25T16:08:58.721Z,12.47
2022-11-25T16:11:29.160Z,14.23
2022-11-25T16:14:03.975Z,10.73
2022-11-25T16:16:31.425Z,10.60
2022-11-25T16:19:06.561Z,13.27
2022-11-25T16:21:35.959Z,7.80
2022-11-25T16:24:05.635Z,11.33
2022-11-25T16:26:51.911Z,12.23
2022-11-25T16:29:30.746Z,12.27
2022-11-25T16:31:57.979Z,14.97
2022-11-25T16:34:25.625Z,10.90
2022-11-25T16:36:52.641Z,11.17
2022-11-25T16:39:20.507Z,14.50
2022-11-25T16:41:58.442Z,10.73
2022-11-25T16:44:26.222Z,9.23
2022-11-25T16:46:53.359Z,14.57
2022-11-25T16:49:20.962Z,9.83
2022-11-25T16:51:49.754Z,15.63
2022-11-25T16:54:18.166Z,11.50
2022-11-25T16:56:46.009Z,9.43
2022-11-25T16:59:18.536Z,11.47
2022-11-25T17:01:45.770Z,12.10
2022-11-25T17:04:13.309Z,15.47
2022-11-25T17:06:41.371Z,20.67
2022-11-25T17:09:08.372Z,12.13
2022-11-25T17:11:46.635Z,10.80
2022-11-25T17:14:20.012Z,11.47
2022-11-25T17:16:46.557Z,11.33
2022-11-25T17:19:15.806Z,13.37
2022-11-25T17:21:43.508Z,10.27
2022-11-25T17:24:17.811Z,11.17
2022-11-25T17:26:46.943Z,12.53
2022-11-25T17:29:16.628Z,10.40
2022-11-25T17:31:46.439Z,17.37
2022-11-25T17:34:16.133Z,13.00
2022-11-25T17:36:44.311Z,13.30
2022-11-25T17:39:12.295Z,11.53
2022-11-25T17:41:42.764Z,16.47
2022-11-25T17:44:15.366Z,10.83
2022-11-25T17:46:41.842Z,10.83
2022-11-25T17:49:14.229Z,14.23
2022-11-25T17:51:41.818Z,11.57
2022-11-25T17:54:08.560Z,11.37
2022-11-25T17:56:35.177Z,16.47
2022-11-25T17:59:04.133Z,13.87
2022-11-25T18:01:31.523Z,12.53
2022-11-25T18:03:58.157Z,19.17
2022-11-25T18:06:24.566Z,13.30
2022-11-25T18:08:51.079Z,16.33
2022-11-25T18:11:18.929Z,11.83
2022-11-25T18:13:47.482Z,20.17
2022-11-25T18:16:15.150Z,14.40
2022-11-25T18:18:41.711Z,14.43
2022-11-25T18:21:09.171Z,14.73
2022-11-25T18:23:35.825Z,18.60
2022-11-25T18:26:02.540Z,13.27
2022-11-25T18:28:30.467Z,17.10
2022-11-25T18:31:00.360Z,22.30
2022-11-25T18:33:26.910Z,13.57
2022-11-25T18:35:53.369Z,18.03
2022-11-25T18:38:20.114Z,16.97
2022-11-25T18:40:51.972Z,20.67
2022-11-25T18:43:25.305Z,18.17
2022-11-25T18:45:52.885Z,17.90
2022-11-25T18:48:24.528Z,14.13
2022-11-25T18:50:54.096Z,11.10
2022-11-25T18:53:20.693Z,15.27
2022-11-25T18:55:48.422Z,12.93
2022-11-25T18:58:22.037Z,16.33
2022-11-25T19:00:49.085Z,13.80
2022-11-25T19:03:26.206Z,15.57
2022-11-25T19:05:54.290Z,15.57
2022-11-25T19:08:20.923Z,12.70
2022-11-25T19:10:48.473Z,19.80
2022-11-25T19:13:19.916Z,17.90
2022-11-25T19:15:46.839Z,18.97
2022-11-25T19:18:28.463Z,24.57
2022-11-25T19:20:55.368Z,21.33
2022-11-25T19:23:30.715Z,19.87
2022-11-25T19:26:02.306Z,15.17
2022-11-25T19:28:29.779Z,17.77
2022-11-25T19:30:59.539Z,17.03
2022-11-25T19:33:37.764Z,20.47
2022-11-25T19:36:05.653Z,15.53
2022-11-25T19:38:33.079Z,21.50
2022-11-25T19:40:59.636Z,24.70
2022-11-25T19:43:27.094Z,23.20
2022-11-25T19:45:55.052Z,27.43
2022-11-25T19:48:22.834Z,25.57
2022-11-25T19:50:58.969Z,28.30
2022-11-25T19:53:31.749Z,18.53
2022-11-25T19:56:03.910Z,15.13
2022-11-25T19:58:30.701Z,23.23
2022-11-25T20:01:01.555Z,11.87
2022-11-25T20:03:30.084Z,14.77
2022-11-25T20:05:56.924Z,16.20
2022-11-25T20:08:26.200Z,14.43
2022-11-25T20:10:53.204Z,14.70
2022-11-25T20:13:20.232Z,13.87
2022-11-25T20:15:46.852Z,19.23
2022-11-25T20:18:18.666Z,12.87
2022-11-25T20:20:47.283Z,10.23
2022-11-25T20:23:43.741Z,15.03
2022-11-25T20:26:26.705Z,10.70
2022-11-25T20:28:53.528Z,14.07
2022-11-25T20:31:20.348Z,14.07
2022-11-25T20:33:48.388Z,14.83
2022-11-25T20:36:17.386Z,13.50
2022-11-25T20:38:50.748Z,14.70
2022-11-25T20:41:18.421Z,13.77
2022-11-25T20:43:49.117Z,17.53
2022-11-25T20:46:18.858Z,14.97
2022-11-25T20:48:46.094Z,13.83
2022-11-25T20:51:20.747Z,11.67
2022-11-25T20:53:49.828Z,9.60
2022-11-25T20:56:21.989Z,11.57
2022-11-25T20:58:48.597Z,16.50
2022-11-25T21:01:16.873Z,13.10
2022-11-25T21:03:44.960Z,14.23
2022-11-25T21:06:28.183Z,13.27
2022-11-25T21:08:56.984Z,13.67
2022-11-25T21:11:24.330Z,16.43
2022-11-25T21:13:52.047Z,17.07
2022-11-25T21:16:18.745Z,13.93
2022-11-25T21:18:45.509Z,12.43
2022-11-25T21:21:18.524Z,13.27
2022-11-25T21:23:45.937Z,11.73
2022-11-25T21:26:22.311Z,12.37
2022-11-25T21:28:50.373Z,13.10
2022-11-25T21:31:19.400Z,11.43
2022-11-25T21:33:46.678Z,10.03
2022-11-25T21:36:18.999Z,17.63
2022-11-25T21:38:46.901Z,11.00
2022-11-25T21:41:13.699Z,18.03
2022-11-25T21:43:43.357Z,12.47
2022-11-25T21:46:17.143Z,9.77
2022-11-25T21:48:43.718Z,9.80
2022-11-25T21:51:12.393Z,15.20
2022-11-25T21:53:38.937Z,11.30
2022-11-25T21:56:22.186Z,15.10
2022-11-25T21:58:48.693Z,8.00
2022-11-25T22:01:16.957Z,8.53
2022-11-25T22:03:43.476Z,13.53
2022-11-25T22:06:19.488Z,6.23
2022-11-25T22:08:46.163Z,9.57
2022-11-25T22:11:18.535Z,14.17
2022-11-25T22:13:47.054Z,7.00
2022-11-25T22:16:26.207Z,7.57
2022-11-25T22:18:52.739Z,8.17
2022-11-25T22:21:19.317Z,6.80
2022-11-25T22:23:46.078Z,8.97
2022-11-25T22:26:32.536Z,8.07
2022-11-25T22:29:01.060Z,6.17
2022-11-25T22:31:28.286Z,8.00
2022-11-25T22:33:54.864Z,8.50
2022-11-25T22:36:36.026Z,6.43
2022-11-25T22:39:25.957Z,8.00
2022-11-25T22:41:55.921Z,5.77
2022-11-25T22:44:36.902Z,9.33
2022-11-25T22:47:03.952Z,6.97
2022-11-25T22:49:36.241Z,7.53
2022-11-25T22:52:03.008Z,11.27
2022-11-25T22:54:29.598Z,8.30
2022-11-25T22:56:56.916Z,10.23
2022-11-25T22:59:23.353Z,7.87
2022-11-25T23:01:49.837Z,9.27
2022-11-25T23:04:18.725Z,12.33
2022-11-25T23:06:46.132Z,11.30
2022-11-25T23:09:19.089Z,7.30
2022-11-25T23:11:46.382Z,8.77
2022-11-25T23:14:13.417Z,7.73
2022-11-25T23:16:41.407Z,7.27
2022-11-25T23:19:16.688Z,8.37
2022-11-25T23:21:45.364Z,8.87
2022-11-25T23:24:14.047Z,9.37
2022-11-25T23:26:40.610Z,14.67
2022-11-25T23:29:07.501Z,11.80
2022-11-25T23:31:38.131Z,10.43
2022-11-25T23:34:06.502Z,13.20
2022-11-25T23:36:41.891Z,12.07
2022-11-25T23:39:16.777Z,8.57
2022-11-25T23:41:43.194Z,10.27
2022-11-25T23:44:18.243Z,9.97
2022-11-25T23:46:44.877Z,7.80
2022-11-25T23:49:20.517Z,8.47
2022-11-25T23:51:47.233Z,9.43
2022-11-25T23:54:15.320Z,8.70
2022-11-25T23:56:42.179Z,7.77
2022-11-25T23:59:16.633Z,7.87
